Cumberland, Iowa
Current Conditions -  °F | °C
As of 10:15 AM on Friday 24 Oct 2014 (Local Time) from KAIO Reporting Station
Haze Haze  
Wind Chill: 17°   Ceiling: 600
Heat Index: 17°   Visibility: 3mi
Dew Point: 16°   Wind: 16mph
Humidity: 94%   Direction: 210°SSW
Pressure: 29.95"   Gusts: NA
Location:  41.27°N, 94.87°W
Report Text: KAIO 241515Z AUTO 21014KT 3SM BR OVC006 17/16 A2995 RMK AO2
Loading
Personal Weather Stations






























Interactive Weather Map
Tropical Storm Tracking
New forecast layout! Learn more

10-Day Weather Forecast

Advertisements
Track Severe Weather on mobile